sensor_id;sensor_type;location;lat;lon;timestamp;P1;durP1;ratioP1;P2;durP2;ratioP2
1479;SDS011;732;51.698;4.886;2023-03-08T00:01:23;45.10;;;19.70;;
1479;SDS011;732;51.698;4.886;2023-03-08T00:03:52;42.43;;;19.10;;
1479;SDS011;732;51.698;4.886;2023-03-08T00:06:23;40.03;;;19.23;;
1479;SDS011;732;51.698;4.886;2023-03-08T00:08:53;38.00;;;18.57;;
1479;SDS011;732;51.698;4.886;2023-03-08T00:11:23;43.33;;;19.73;;
1479;SDS011;732;51.698;4.886;2023-03-08T00:13:54;39.90;;;19.80;;
1479;SDS011;732;51.698;4.886;2023-03-08T00:16:23;45.23;;;21.20;;
1479;SDS011;732;51.698;4.886;2023-03-08T00:18:51;47.13;;;22.10;;
1479;SDS011;732;51.698;4.886;2023-03-08T00:21:20;41.90;;;21.17;;
1479;SDS011;732;51.698;4.886;2023-03-08T00:23:50;46.90;;;22.27;;
1479;SDS011;732;51.698;4.886;2023-03-08T00:26:19;48.57;;;23.83;;
1479;SDS011;732;51.698;4.886;2023-03-08T00:28:48;60.90;;;25.07;;
1479;SDS011;732;51.698;4.886;2023-03-08T00:31:19;48.97;;;23.83;;
1479;SDS011;732;51.698;4.886;2023-03-08T00:33:52;52.97;;;24.60;;
1479;SDS011;732;51.698;4.886;2023-03-08T00:36:20;51.70;;;23.27;;
1479;SDS011;732;51.698;4.886;2023-03-08T00:38:49;51.87;;;24.70;;
1479;SDS011;732;51.698;4.886;2023-03-08T00:41:17;57.13;;;25.30;;
1479;SDS011;732;51.698;4.886;2023-03-08T00:43:46;66.40;;;28.47;;
1479;SDS011;732;51.698;4.886;2023-03-08T00:46:15;57.00;;;26.93;;
1479;SDS011;732;51.698;4.886;2023-03-08T00:48:45;64.93;;;29.17;;
1479;SDS011;732;51.698;4.886;2023-03-08T00:51:14;69.80;;;29.40;;
1479;SDS011;732;51.698;4.886;2023-03-08T00:53:45;77.90;;;32.10;;
1479;SDS011;732;51.698;4.886;2023-03-08T00:56:14;83.13;;;33.63;;
1479;SDS011;732;51.698;4.886;2023-03-08T00:58:43;92.87;;;35.00;;
1479;SDS011;732;51.698;4.886;2023-03-08T01:01:13;97.63;;;38.70;;
1479;SDS011;732;51.698;4.886;2023-03-08T01:03:47;86.83;;;37.27;;
1479;SDS011;732;51.698;4.886;2023-03-08T01:06:15;108.40;;;40.20;;
1479;SDS011;732;51.698;4.886;2023-03-08T01:08:44;117.83;;;44.17;;
1479;SDS011;732;51.698;4.886;2023-03-08T01:11:16;117.93;;;44.33;;
1479;SDS011;732;51.698;4.886;2023-03-08T01:13:48;112.03;;;41.80;;
1479;SDS011;732;51.698;4.886;2023-03-08T01:16:17;116.60;;;44.23;;
1479;SDS011;732;51.698;4.886;2023-03-08T01:18:50;115.97;;;44.50;;
1479;SDS011;732;51.698;4.886;2023-03-08T01:21:22;129.13;;;45.80;;
1479;SDS011;732;51.698;4.886;2023-03-08T01:23:51;129.87;;;49.73;;
1479;SDS011;732;51.698;4.886;2023-03-08T01:26:21;134.60;;;47.33;;
1479;SDS011;732;51.698;4.886;2023-03-08T01:28:55;137.07;;;46.27;;
1479;SDS011;732;51.698;4.886;2023-03-08T01:31:26;144.93;;;48.67;;
1479;SDS011;732;51.698;4.886;2023-03-08T01:33:59;136.20;;;50.10;;
1479;SDS011;732;51.698;4.886;2023-03-08T01:36:27;126.43;;;46.90;;
1479;SDS011;732;51.698;4.886;2023-03-08T01:38:58;140.33;;;47.57;;
1479;SDS011;732;51.698;4.886;2023-03-08T01:41:28;110.43;;;45.40;;
1479;SDS011;732;51.698;4.886;2023-03-08T01:43:59;123.90;;;47.50;;
1479;SDS011;732;51.698;4.886;2023-03-08T01:46:28;125.87;;;48.00;;
1479;SDS011;732;51.698;4.886;2023-03-08T01:49:05;122.60;;;46.57;;
1479;SDS011;732;51.698;4.886;2023-03-08T01:51:38;133.23;;;47.50;;
1479;SDS011;732;51.698;4.886;2023-03-08T01:54:11;108.20;;;43.67;;
1479;SDS011;732;51.698;4.886;2023-03-08T01:56:44;116.23;;;46.50;;
1479;SDS011;732;51.698;4.886;2023-03-08T01:59:16;127.63;;;47.83;;
1479;SDS011;732;51.698;4.886;2023-03-08T02:01:47;162.63;;;53.30;;
1479;SDS011;732;51.698;4.886;2023-03-08T02:04:18;145.87;;;51.37;;
1479;SDS011;732;51.698;4.886;2023-03-08T02:06:47;146.13;;;52.10;;
1479;SDS011;732;51.698;4.886;2023-03-08T02:09:19;165.83;;;56.63;;
1479;SDS011;732;51.698;4.886;2023-03-08T02:11:50;152.27;;;54.20;;
1479;SDS011;732;51.698;4.886;2023-03-08T02:14:20;148.97;;;54.90;;
1479;SDS011;732;51.698;4.886;2023-03-08T02:16:49;149.57;;;53.57;;
1479;SDS011;732;51.698;4.886;2023-03-08T02:19:21;148.17;;;54.70;;
1479;SDS011;732;51.698;4.886;2023-03-08T02:21:55;141.13;;;52.63;;
1479;SDS011;732;51.698;4.886;2023-03-08T02:24:25;174.00;;;59.40;;
1479;SDS011;732;51.698;4.886;2023-03-08T02:26:55;152.50;;;57.90;;
1479;SDS011;732;51.698;4.886;2023-03-08T02:29:28;201.47;;;66.80;;
1479;SDS011;732;51.698;4.886;2023-03-08T02:31:57;151.33;;;59.07;;
1479;SDS011;732;51.698;4.886;2023-03-08T02:34:25;241.17;;;83.50;;
1479;SDS011;732;51.698;4.886;2023-03-08T02:36:53;202.47;;;70.07;;
1479;SDS011;732;51.698;4.886;2023-03-08T02:39:22;252.00;;;81.90;;
1479;SDS011;732;51.698;4.886;2023-03-08T02:41:54;203.67;;;72.53;;
1479;SDS011;732;51.698;4.886;2023-03-08T02:44:23;155.37;;;61.60;;
1479;SDS011;732;51.698;4.886;2023-03-08T02:46:51;231.63;;;80.30;;
1479;SDS011;732;51.698;4.886;2023-03-08T02:49:20;243.80;;;84.07;;
1479;SDS011;732;51.698;4.886;2023-03-08T02:51:50;215.20;;;77.27;;
1479;SDS011;732;51.698;4.886;2023-03-08T02:54:19;254.70;;;87.37;;
1479;SDS011;732;51.698;4.886;2023-03-08T02:56:47;253.90;;;88.40;;
1479;SDS011;732;51.698;4.886;2023-03-08T02:59:17;293.87;;;95.47;;
1479;SDS011;732;51.698;4.886;2023-03-08T03:01:49;293.17;;;91.30;;
1479;SDS011;732;51.698;4.886;2023-03-08T03:04:18;277.03;;;91.77;;
1479;SDS011;732;51.698;4.886;2023-03-08T03:06:46;298.70;;;92.70;;
1479;SDS011;732;51.698;4.886;2023-03-08T03:09:15;329.93;;;94.40;;
1479;SDS011;732;51.698;4.886;2023-03-08T03:11:43;434.20;;;107.97;;
1479;SDS011;732;51.698;4.886;2023-03-08T03:14:12;405.63;;;101.47;;
1479;SDS011;732;51.698;4.886;2023-03-08T03:16:43;432.87;;;111.47;;
1479;SDS011;732;51.698;4.886;2023-03-08T03:19:12;381.70;;;102.13;;
1479;SDS011;732;51.698;4.886;2023-03-08T03:21:40;550.03;;;122.40;;
1479;SDS011;732;51.698;4.886;2023-03-08T03:24:09;615.13;;;136.53;;
1479;SDS011;732;51.698;4.886;2023-03-08T03:26:43;612.83;;;136.53;;
1479;SDS011;732;51.698;4.886;2023-03-08T03:29:11;547.00;;;118.87;;
1479;SDS011;732;51.698;4.886;2023-03-08T03:31:43;767.90;;;147.13;;
1479;SDS011;732;51.698;4.886;2023-03-08T03:34:15;505.47;;;112.83;;
1479;SDS011;732;51.698;4.886;2023-03-08T03:36:45;443.90;;;94.87;;
1479;SDS011;732;51.698;4.886;2023-03-08T03:39:13;592.07;;;117.67;;
1479;SDS011;732;51.698;4.886;2023-03-08T03:41:44;687.27;;;140.83;;
1479;SDS011;732;51.698;4.886;2023-03-08T03:44:13;1142.63;;;197.63;;
1479;SDS011;732;51.698;4.886;2023-03-08T03:46:45;1268.90;;;223.97;;
1479;SDS011;732;51.698;4.886;2023-03-08T03:49:17;577.43;;;119.93;;
1479;SDS011;732;51.698;4.886;2023-03-08T03:51:46;1125.70;;;198.17;;
1479;SDS011;732;51.698;4.886;2023-03-08T03:54:37;604.17;;;122.07;;
1479;SDS011;732;51.698;4.886;2023-03-08T03:57:05;639.73;;;126.47;;
1479;SDS011;732;51.698;4.886;2023-03-08T03:59:37;736.90;;;145.67;;
1479;SDS011;732;51.698;4.886;2023-03-08T04:02:07;562.97;;;124.13;;
1479;SDS011;732;51.698;4.886;2023-03-08T04:04:48;1044.60;;;183.90;;
1479;SDS011;732;51.698;4.886;2023-03-08T04:07:20;599.33;;;118.93;;
1479;SDS011;732;51.698;4.886;2023-03-08T04:09:59;942.97;;;157.43;;
1479;SDS011;732;51.698;4.886;2023-03-08T04:12:29;571.03;;;115.87;;
1479;SDS011;732;51.698;4.886;2023-03-08T04:14:57;699.23;;;132.33;;
1479;SDS011;732;51.698;4.886;2023-03-08T04:17:30;571.63;;;114.23;;
1479;SDS011;732;51.698;4.886;2023-03-08T04:19:59;765.53;;;142.60;;
1479;SDS011;732;51.698;4.886;2023-03-08T04:22:33;655.20;;;125.73;;
1479;SDS011;732;51.698;4.886;2023-03-08T04:25:13;543.13;;;106.37;;
1479;SDS011;732;51.698;4.886;2023-03-08T04:27:47;1044.20;;;172.00;;
1479;SDS011;732;51.698;4.886;2023-03-08T04:30:16;729.13;;;132.77;;
1479;SDS011;732;51.698;4.886;2023-03-08T04:32:46;1294.27;;;197.60;;
1479;SDS011;732;51.698;4.886;2023-03-08T04:35:15;556.30;;;111.37;;
1479;SDS011;732;51.698;4.886;2023-03-08T04:37:47;575.80;;;111.83;;
1479;SDS011;732;51.698;4.886;2023-03-08T04:40:18;469.63;;;95.17;;
1479;SDS011;732;51.698;4.886;2023-03-08T04:42:52;743.37;;;129.13;;
1479;SDS011;732;51.698;4.886;2023-03-08T04:45:26;461.50;;;97.67;;
1479;SDS011;732;51.698;4.886;2023-03-08T04:47:58;841.83;;;144.17;;
1479;SDS011;732;51.698;4.886;2023-03-08T04:50:28;1036.20;;;167.67;;
1479;SDS011;732;51.698;4.886;2023-03-08T04:52:56;451.03;;;94.40;;
1479;SDS011;732;51.698;4.886;2023-03-08T04:55:26;508.47;;;102.00;;
1479;SDS011;732;51.698;4.886;2023-03-08T04:57:55;686.50;;;122.20;;
1479;SDS011;732;51.698;4.886;2023-03-08T05:00:27;822.60;;;145.43;;
1479;SDS011;732;51.698;4.886;2023-03-08T05:02:56;564.90;;;105.60;;
1479;SDS011;732;51.698;4.886;2023-03-08T05:05:27;932.57;;;154.27;;
1479;SDS011;732;51.698;4.886;2023-03-08T05:07:56;509.30;;;102.00;;
1479;SDS011;732;51.698;4.886;2023-03-08T05:10:31;814.37;;;142.00;;
1479;SDS011;732;51.698;4.886;2023-03-08T05:12:59;579.80;;;111.87;;
1479;SDS011;732;51.698;4.886;2023-03-08T05:15:28;736.10;;;130.30;;
1479;SDS011;732;51.698;4.886;2023-03-08T05:17:56;624.47;;;118.20;;
1479;SDS011;732;51.698;4.886;2023-03-08T05:20:26;590.33;;;116.43;;
1479;SDS011;732;51.698;4.886;2023-03-08T05:22:55;662.10;;;122.57;;
1479;SDS011;732;51.698;4.886;2023-03-08T05:25:34;774.53;;;137.03;;
1479;SDS011;732;51.698;4.886;2023-03-08T05:28:10;484.77;;;98.87;;
1479;SDS011;732;51.698;4.886;2023-03-08T05:30:42;528.37;;;110.77;;
1479;SDS011;732;51.698;4.886;2023-03-08T05:33:12;648.40;;;114.00;;
1479;SDS011;732;51.698;4.886;2023-03-08T05:35:42;592.10;;;107.83;;
1479;SDS011;732;51.698;4.886;2023-03-08T05:38:11;539.87;;;103.50;;
1479;SDS011;732;51.698;4.886;2023-03-08T05:40:39;561.43;;;98.07;;
1479;SDS011;732;51.698;4.886;2023-03-08T05:43:09;668.30;;;117.60;;
1479;SDS011;732;51.698;4.886;2023-03-08T05:45:37;581.30;;;107.37;;
1479;SDS011;732;51.698;4.886;2023-03-08T05:48:06;600.27;;;107.33;;
1479;SDS011;732;51.698;4.886;2023-03-08T05:50:35;539.00;;;101.07;;
1479;SDS011;732;51.698;4.886;2023-03-08T05:53:06;539.70;;;100.87;;
1479;SDS011;732;51.698;4.886;2023-03-08T05:55:35;479.20;;;92.57;;
1479;SDS011;732;51.698;4.886;2023-03-08T05:58:03;461.63;;;87.43;;
1479;SDS011;732;51.698;4.886;2023-03-08T06:00:32;517.33;;;101.57;;
1479;SDS011;732;51.698;4.886;2023-03-08T06:03:01;418.60;;;84.10;;
1479;SDS011;732;51.698;4.886;2023-03-08T06:05:33;419.53;;;80.60;;
1479;SDS011;732;51.698;4.886;2023-03-08T06:08:01;409.03;;;80.77;;
1479;SDS011;732;51.698;4.886;2023-03-08T06:10:32;436.43;;;82.53;;
1479;SDS011;732;51.698;4.886;2023-03-08T06:13:01;336.27;;;70.73;;
1479;SDS011;732;51.698;4.886;2023-03-08T06:15:30;305.40;;;70.67;;
1479;SDS011;732;51.698;4.886;2023-03-08T06:17:58;315.60;;;67.10;;
1479;SDS011;732;51.698;4.886;2023-03-08T06:20:28;334.20;;;71.60;;
1479;SDS011;732;51.698;4.886;2023-03-08T06:22:56;340.73;;;70.47;;
1479;SDS011;732;51.698;4.886;2023-03-08T06:25:26;337.37;;;67.57;;
1479;SDS011;732;51.698;4.886;2023-03-08T06:27:56;284.10;;;62.07;;
1479;SDS011;732;51.698;4.886;2023-03-08T06:30:30;294.43;;;63.97;;
1479;SDS011;732;51.698;4.886;2023-03-08T06:32:58;251.70;;;59.10;;
1479;SDS011;732;51.698;4.886;2023-03-08T06:35:26;284.87;;;61.07;;
1479;SDS011;732;51.698;4.886;2023-03-08T06:37:59;210.93;;;54.03;;
1479;SDS011;732;51.698;4.886;2023-03-08T06:40:27;228.27;;;53.50;;
1479;SDS011;732;51.698;4.886;2023-03-08T06:42:57;220.17;;;50.53;;
1479;SDS011;732;51.698;4.886;2023-03-08T06:45:26;159.30;;;44.10;;
1479;SDS011;732;51.698;4.886;2023-03-08T06:47:54;166.53;;;40.97;;
1479;SDS011;732;51.698;4.886;2023-03-08T06:50:23;126.10;;;35.37;;
1479;SDS011;732;51.698;4.886;2023-03-08T06:52:51;119.63;;;34.20;;
1479;SDS011;732;51.698;4.886;2023-03-08T06:55:33;144.63;;;35.97;;
1479;SDS011;732;51.698;4.886;2023-03-08T06:58:03;124.80;;;37.33;;
1479;SDS011;732;51.698;4.886;2023-03-08T07:00:32;113.83;;;33.93;;
1479;SDS011;732;51.698;4.886;2023-03-08T07:03:01;104.93;;;31.80;;
1479;SDS011;732;51.698;4.886;2023-03-08T07:05:30;116.50;;;31.97;;
1479;SDS011;732;51.698;4.886;2023-03-08T07:07:59;110.20;;;33.17;;
1479;SDS011;732;51.698;4.886;2023-03-08T07:10:27;96.67;;;32.07;;
1479;SDS011;732;51.698;4.886;2023-03-08T07:12:55;117.00;;;33.57;;
1479;SDS011;732;51.698;4.886;2023-03-08T07:15:25;122.80;;;34.27;;
1479;SDS011;732;51.698;4.886;2023-03-08T07:17:54;117.53;;;34.33;;
1479;SDS011;732;51.698;4.886;2023-03-08T07:20:24;126.13;;;35.30;;
1479;SDS011;732;51.698;4.886;2023-03-08T07:22:53;111.97;;;33.40;;
1479;SDS011;732;51.698;4.886;2023-03-08T07:25:22;141.47;;;39.10;;
1479;SDS011;732;51.698;4.886;2023-03-08T07:27:51;128.33;;;38.00;;
1479;SDS011;732;51.698;4.886;2023-03-08T07:30:19;137.00;;;36.77;;
1479;SDS011;732;51.698;4.886;2023-03-08T07:32:51;124.27;;;37.37;;
1479;SDS011;732;51.698;4.886;2023-03-08T07:35:20;112.07;;;36.17;;
1479;SDS011;732;51.698;4.886;2023-03-08T07:37:48;102.80;;;33.83;;
1479;SDS011;732;51.698;4.886;2023-03-08T07:40:17;106.47;;;34.40;;
1479;SDS011;732;51.698;4.886;2023-03-08T07:42:45;97.37;;;32.57;;
1479;SDS011;732;51.698;4.886;2023-03-08T07:45:33;105.13;;;34.63;;
1479;SDS011;732;51.698;4.886;2023-03-08T07:48:03;97.97;;;32.80;;
1479;SDS011;732;51.698;4.886;2023-03-08T07:50:32;110.57;;;32.10;;
1479;SDS011;732;51.698;4.886;2023-03-08T07:53:01;89.53;;;31.07;;
1479;SDS011;732;51.698;4.886;2023-03-08T07:55:30;85.63;;;27.77;;
1479;SDS011;732;51.698;4.886;2023-03-08T07:57:58;74.00;;;27.97;;
1479;SDS011;732;51.698;4.886;2023-03-08T08:00:27;83.83;;;29.73;;
1479;SDS011;732;51.698;4.886;2023-03-08T08:02:55;76.07;;;28.50;;
1479;SDS011;732;51.698;4.886;2023-03-08T08:05:25;88.30;;;29.07;;
1479;SDS011;732;51.698;4.886;2023-03-08T08:07:54;74.03;;;26.10;;
1479;SDS011;732;51.698;4.886;2023-03-08T08:10:22;82.73;;;29.70;;
1479;SDS011;732;51.698;4.886;2023-03-08T08:12:51;67.80;;;25.50;;
1479;SDS011;732;51.698;4.886;2023-03-08T08:15:19;58.73;;;25.60;;
1479;SDS011;732;51.698;4.886;2023-03-08T08:17:50;60.90;;;24.03;;
1479;SDS011;732;51.698;4.886;2023-03-08T08:20:19;66.77;;;26.13;;
1479;SDS011;732;51.698;4.886;2023-03-08T08:22:49;59.43;;;23.87;;
1479;SDS011;732;51.698;4.886;2023-03-08T08:25:19;72.77;;;25.80;;
1479;SDS011;732;51.698;4.886;2023-03-08T08:27:48;58.83;;;23.00;;
1479;SDS011;732;51.698;4.886;2023-03-08T08:30:17;62.20;;;24.33;;
1479;SDS011;732;51.698;4.886;2023-03-08T08:32:46;69.97;;;24.90;;
1479;SDS011;732;51.698;4.886;2023-03-08T08:35:15;64.63;;;24.30;;
1479;SDS011;732;51.698;4.886;2023-03-08T08:37:43;66.90;;;24.90;;
1479;SDS011;732;51.698;4.886;2023-03-08T08:40:13;71.03;;;26.93;;
1479;SDS011;732;51.698;4.886;2023-03-08T08:42:42;67.73;;;24.17;;
1479;SDS011;732;51.698;4.886;2023-03-08T08:45:10;65.87;;;24.10;;
1479;SDS011;732;51.698;4.886;2023-03-08T08:47:39;79.53;;;24.80;;
1479;SDS011;732;51.698;4.886;2023-03-08T08:50:08;57.60;;;22.87;;
1479;SDS011;732;51.698;4.886;2023-03-08T08:52:39;68.70;;;25.00;;
1479;SDS011;732;51.698;4.886;2023-03-08T08:55:08;59.27;;;22.80;;
1479;SDS011;732;51.698;4.886;2023-03-08T08:57:38;58.37;;;24.13;;
1479;SDS011;732;51.698;4.886;2023-03-08T09:00:07;57.30;;;20.37;;
1479;SDS011;732;51.698;4.886;2023-03-08T09:02:38;58.80;;;21.60;;
1479;SDS011;732;51.698;4.886;2023-03-08T09:05:07;46.30;;;19.20;;
1479;SDS011;732;51.698;4.886;2023-03-08T09:07:36;55.20;;;20.50;;
1479;SDS011;732;51.698;4.886;2023-03-08T09:10:05;48.50;;;19.80;;
1479;SDS011;732;51.698;4.886;2023-03-08T09:12:35;52.10;;;18.23;;
1479;SDS011;732;51.698;4.886;2023-03-08T09:15:06;48.30;;;18.20;;
1479;SDS011;732;51.698;4.886;2023-03-08T09:17:37;41.63;;;17.13;;
1479;SDS011;732;51.698;4.886;2023-03-08T09:20:06;44.47;;;17.77;;
1479;SDS011;732;51.698;4.886;2023-03-08T09:22:37;45.50;;;17.67;;
1479;SDS011;732;51.698;4.886;2023-03-08T09:25:06;49.90;;;19.03;;
1479;SDS011;732;51.698;4.886;2023-03-08T09:27:36;42.70;;;17.97;;
1479;SDS011;732;51.698;4.886;2023-03-08T09:30:10;44.80;;;18.20;;
1479;SDS011;732;51.698;4.886;2023-03-08T09:32:41;40.60;;;17.70;;
1479;SDS011;732;51.698;4.886;2023-03-08T09:35:10;46.90;;;17.80;;
1479;SDS011;732;51.698;4.886;2023-03-08T09:37:40;42.67;;;18.90;;
1479;SDS011;732;51.698;4.886;2023-03-08T09:40:12;47.47;;;17.97;;
1479;SDS011;732;51.698;4.886;2023-03-08T09:42:46;33.30;;;15.43;;
1479;SDS011;732;51.698;4.886;2023-03-08T09:45:18;39.00;;;15.67;;
1479;SDS011;732;51.698;4.886;2023-03-08T09:47:51;36.13;;;15.30;;
1479;SDS011;732;51.698;4.886;2023-03-08T09:50:31;25.27;;;13.20;;
1479;SDS011;732;51.698;4.886;2023-03-08T09:53:14;27.27;;;13.03;;
1479;SDS011;732;51.698;4.886;2023-03-08T09:55:51;36.50;;;15.03;;
1479;SDS011;732;51.698;4.886;2023-03-08T09:58:27;30.87;;;14.30;;
1479;SDS011;732;51.698;4.886;2023-03-08T10:01:08;27.90;;;13.87;;
1479;SDS011;732;51.698;4.886;2023-03-08T10:03:52;27.23;;;14.07;;
1479;SDS011;732;51.698;4.886;2023-03-08T10:06:53;26.73;;;13.90;;
1479;SDS011;732;51.698;4.886;2023-03-08T10:09:44;22.90;;;12.70;;
1479;SDS011;732;51.698;4.886;2023-03-08T10:12:21;24.90;;;14.40;;
1479;SDS011;732;51.698;4.886;2023-03-08T10:14:56;25.43;;;13.30;;
1479;SDS011;732;51.698;4.886;2023-03-08T10:17:35;26.40;;;14.00;;
1479;SDS011;732;51.698;4.886;2023-03-08T10:20:13;32.77;;;15.30;;
1479;SDS011;732;51.698;4.886;2023-03-08T10:22:47;28.63;;;13.97;;
1479;SDS011;732;51.698;4.886;2023-03-08T10:25:24;24.43;;;13.83;;
1479;SDS011;732;51.698;4.886;2023-03-08T10:27:57;23.23;;;13.40;;
1479;SDS011;732;51.698;4.886;2023-03-08T10:30:31;24.43;;;13.03;;
1479;SDS011;732;51.698;4.886;2023-03-08T10:33:05;25.57;;;13.97;;
1479;SDS011;732;51.698;4.886;2023-03-08T10:35:39;32.63;;;15.20;;
1479;SDS011;732;51.698;4.886;2023-03-08T10:38:25;26.70;;;15.30;;
1479;SDS011;732;51.698;4.886;2023-03-08T10:40:59;21.63;;;13.50;;
1479;SDS011;732;51.698;4.886;2023-03-08T10:43:33;27.97;;;15.03;;
1479;SDS011;732;51.698;4.886;2023-03-08T10:46:10;26.60;;;15.63;;
1479;SDS011;732;51.698;4.886;2023-03-08T10:48:42;25.73;;;15.00;;
1479;SDS011;732;51.698;4.886;2023-03-08T10:51:15;29.43;;;15.37;;
1479;SDS011;732;51.698;4.886;2023-03-08T10:53:52;28.50;;;15.50;;
1479;SDS011;732;51.698;4.886;2023-03-08T10:56:23;24.87;;;14.40;;
1479;SDS011;732;51.698;4.886;2023-03-08T10:58:57;28.60;;;16.07;;
1479;SDS011;732;51.698;4.886;2023-03-08T11:01:27;27.47;;;15.70;;
1479;SDS011;732;51.698;4.886;2023-03-08T11:04:00;20.60;;;13.30;;
1479;SDS011;732;51.698;4.886;2023-03-08T11:06:31;22.00;;;14.13;;
1479;SDS011;732;51.698;4.886;2023-03-08T11:09:02;21.80;;;14.00;;
1479;SDS011;732;51.698;4.886;2023-03-08T11:11:45;22.30;;;14.37;;
1479;SDS011;732;51.698;4.886;2023-03-08T11:14:14;23.10;;;13.80;;
1479;SDS011;732;51.698;4.886;2023-03-08T11:16:45;23.50;;;14.30;;
1479;SDS011;732;51.698;4.886;2023-03-08T11:22:52;22.93;;;13.53;;
1479;SDS011;732;51.698;4.886;2023-03-08T11:25:35;20.13;;;11.93;;
1479;SDS011;732;51.698;4.886;2023-03-08T11:28:21;18.03;;;11.80;;
1479;SDS011;732;51.698;4.886;2023-03-08T11:31:12;18.10;;;11.07;;
1479;SDS011;732;51.698;4.886;2023-03-08T11:33:52;13.77;;;9.13;;
1479;SDS011;732;51.698;4.886;2023-03-08T11:36:49;14.27;;;9.87;;
1479;SDS011;732;51.698;4.886;2023-03-08T11:39:27;16.57;;;10.30;;
1479;SDS011;732;51.698;4.886;2023-03-08T11:42:03;17.70;;;12.23;;
1479;SDS011;732;51.698;4.886;2023-03-08T11:44:47;15.87;;;11.33;;
1479;SDS011;732;51.698;4.886;2023-03-08T11:47:46;22.60;;;13.77;;
1479;SDS011;732;51.698;4.886;2023-03-08T11:50:35;18.60;;;12.60;;
1479;SDS011;732;51.698;4.886;2023-03-08T11:53:12;18.13;;;13.40;;
1479;SDS011;732;51.698;4.886;2023-03-08T11:59:10;21.93;;;14.17;;
1479;SDS011;732;51.698;4.886;2023-03-08T12:01:47;19.27;;;12.00;;
1479;SDS011;732;51.698;4.886;2023-03-08T12:04:20;19.00;;;12.47;;
1479;SDS011;732;51.698;4.886;2023-03-08T12:06:58;17.20;;;11.20;;
1479;SDS011;732;51.698;4.886;2023-03-08T12:09:33;14.63;;;9.73;;
1479;SDS011;732;51.698;4.886;2023-03-08T12:12:10;14.73;;;10.20;;
1479;SDS011;732;51.698;4.886;2023-03-08T12:14:47;16.60;;;11.40;;
1479;SDS011;732;51.698;4.886;2023-03-08T12:17:23;17.50;;;11.47;;
1479;SDS011;732;51.698;4.886;2023-03-08T12:19:58;16.77;;;11.90;;
1479;SDS011;732;51.698;4.886;2023-03-08T12:22:29;19.33;;;12.43;;
1479;SDS011;732;51.698;4.886;2023-03-08T12:25:14;20.47;;;13.10;;
1479;SDS011;732;51.698;4.886;2023-03-08T12:27:52;18.00;;;13.60;;
1479;SDS011;732;51.698;4.886;2023-03-08T12:30:32;18.07;;;13.20;;
1479;SDS011;732;51.698;4.886;2023-03-08T12:33:15;17.60;;;12.70;;
1479;SDS011;732;51.698;4.886;2023-03-08T12:35:49;18.43;;;13.83;;
1479;SDS011;732;51.698;4.886;2023-03-08T12:38:27;18.83;;;12.40;;
1479;SDS011;732;51.698;4.886;2023-03-08T12:41:02;19.70;;;13.27;;
1479;SDS011;732;51.698;4.886;2023-03-08T12:43:34;18.73;;;13.33;;
1479;SDS011;732;51.698;4.886;2023-03-08T12:46:05;18.30;;;12.77;;
1479;SDS011;732;51.698;4.886;2023-03-08T12:48:36;19.37;;;13.00;;
1479;SDS011;732;51.698;4.886;2023-03-08T12:51:18;19.40;;;11.53;;
1479;SDS011;732;51.698;4.886;2023-03-08T12:53:55;18.83;;;12.37;;
1479;SDS011;732;51.698;4.886;2023-03-08T12:56:30;19.20;;;12.63;;
1479;SDS011;732;51.698;4.886;2023-03-08T12:59:02;16.80;;;11.57;;
1479;SDS011;732;51.698;4.886;2023-03-08T13:02:00;18.17;;;12.33;;
1479;SDS011;732;51.698;4.886;2023-03-08T13:04:49;18.10;;;11.23;;
1479;SDS011;732;51.698;4.886;2023-03-08T13:07:58;19.30;;;11.50;;
1479;SDS011;732;51.698;4.886;2023-03-08T13:10:55;17.33;;;11.60;;
1479;SDS011;732;51.698;4.886;2023-03-08T13:13:32;18.87;;;10.83;;
1479;SDS011;732;51.698;4.886;2023-03-08T13:16:21;18.27;;;11.70;;
1479;SDS011;732;51.698;4.886;2023-03-08T13:19:06;18.37;;;11.43;;
1479;SDS011;732;51.698;4.886;2023-03-08T13:21:53;17.30;;;10.40;;
1479;SDS011;732;51.698;4.886;2023-03-08T13:24:39;15.50;;;9.93;;
1479;SDS011;732;51.698;4.886;2023-03-08T13:27:19;15.00;;;11.07;;
1479;SDS011;732;51.698;4.886;2023-03-08T13:30:01;17.13;;;11.03;;
1479;SDS011;732;51.698;4.886;2023-03-08T13:32:49;17.37;;;10.83;;
1479;SDS011;732;51.698;4.886;2023-03-08T13:35:18;18.43;;;11.50;;
1479;SDS011;732;51.698;4.886;2023-03-08T13:37:51;16.07;;;9.97;;
1479;SDS011;732;51.698;4.886;2023-03-08T13:40:21;16.10;;;10.00;;
1479;SDS011;732;51.698;4.886;2023-03-08T13:42:51;16.77;;;9.90;;
1479;SDS011;732;51.698;4.886;2023-03-08T13:45:23;15.40;;;9.93;;
1479;SDS011;732;51.698;4.886;2023-03-08T13:47:52;18.20;;;11.17;;
1479;SDS011;732;51.698;4.886;2023-03-08T13:50:25;15.27;;;9.80;;
1479;SDS011;732;51.698;4.886;2023-03-08T13:52:57;14.27;;;9.03;;
1479;SDS011;732;51.698;4.886;2023-03-08T13:55:31;16.37;;;9.23;;
1479;SDS011;732;51.698;4.886;2023-03-08T13:58:01;16.07;;;9.50;;
1479;SDS011;732;51.698;4.886;2023-03-08T14:00:32;16.80;;;10.07;;
1479;SDS011;732;51.698;4.886;2023-03-08T14:03:03;15.40;;;8.83;;
1479;SDS011;732;51.698;4.886;2023-03-08T14:05:38;15.30;;;9.13;;
1479;SDS011;732;51.698;4.886;2023-03-08T14:08:16;11.63;;;8.30;;
1479;SDS011;732;51.698;4.886;2023-03-08T14:10:48;17.33;;;8.70;;
1479;SDS011;732;51.698;4.886;2023-03-08T14:13:24;13.27;;;8.90;;
1479;SDS011;732;51.698;4.886;2023-03-08T14:15:58;11.70;;;7.80;;
1479;SDS011;732;51.698;4.886;2023-03-08T14:18:29;11.13;;;7.57;;
1479;SDS011;732;51.698;4.886;2023-03-08T14:21:02;12.43;;;7.80;;
1479;SDS011;732;51.698;4.886;2023-03-08T14:23:37;12.40;;;7.87;;
1479;SDS011;732;51.698;4.886;2023-03-08T14:26:28;15.00;;;9.30;;
1479;SDS011;732;51.698;4.886;2023-03-08T14:29:08;12.17;;;8.47;;
1479;SDS011;732;51.698;4.886;2023-03-08T14:31:55;13.30;;;8.77;;
1479;SDS011;732;51.698;4.886;2023-03-08T14:34:27;13.20;;;7.97;;
1479;SDS011;732;51.698;4.886;2023-03-08T14:37:00;11.53;;;7.40;;
1479;SDS011;732;51.698;4.886;2023-03-08T14:39:33;9.90;;;7.17;;
1479;SDS011;732;51.698;4.886;2023-03-08T14:42:10;12.67;;;8.50;;
1479;SDS011;732;51.698;4.886;2023-03-08T14:44:48;13.13;;;8.53;;
1479;SDS011;732;51.698;4.886;2023-03-08T14:47:21;12.93;;;9.20;;
1479;SDS011;732;51.698;4.886;2023-03-08T14:49:58;11.90;;;7.80;;
1479;SDS011;732;51.698;4.886;2023-03-08T14:52:29;12.80;;;8.87;;
1479;SDS011;732;51.698;4.886;2023-03-08T14:55:01;12.63;;;7.83;;
1479;SDS011;732;51.698;4.886;2023-03-08T14:57:45;12.20;;;8.33;;
1479;SDS011;732;51.698;4.886;2023-03-08T15:00:14;14.00;;;9.90;;
1479;SDS011;732;51.698;4.886;2023-03-08T15:02:45;14.00;;;9.27;;
1479;SDS011;732;51.698;4.886;2023-03-08T15:05:14;14.87;;;9.10;;
1479;SDS011;732;51.698;4.886;2023-03-08T15:07:55;13.47;;;8.53;;
1479;SDS011;732;51.698;4.886;2023-03-08T15:10:26;13.40;;;8.80;;
1479;SDS011;732;51.698;4.886;2023-03-08T15:12:58;15.37;;;8.97;;
1479;SDS011;732;51.698;4.886;2023-03-08T15:15:27;14.73;;;9.53;;
1479;SDS011;732;51.698;4.886;2023-03-08T15:17:57;18.23;;;10.37;;
1479;SDS011;732;51.698;4.886;2023-03-08T15:20:25;16.87;;;9.87;;
1479;SDS011;732;51.698;4.886;2023-03-08T15:22:54;18.00;;;10.00;;
1479;SDS011;732;51.698;4.886;2023-03-08T15:25:27;14.70;;;9.50;;
1479;SDS011;732;51.698;4.886;2023-03-08T15:27:57;15.67;;;10.77;;
1479;SDS011;732;51.698;4.886;2023-03-08T15:30:26;19.30;;;11.20;;
1479;SDS011;732;51.698;4.886;2023-03-08T15:32:58;15.50;;;10.63;;
1479;SDS011;732;51.698;4.886;2023-03-08T15:35:28;22.27;;;11.73;;